createdAt,value
2023-01-01T00:01:16.583Z,12.42
2023-01-01T00:03:59.775Z,12.45
2023-01-01T00:06:27.933Z,12.57
2023-01-01T00:09:14.715Z,12.57
2023-01-01T00:11:42.855Z,12.39
2023-01-01T00:14:12.652Z,12.52
2023-01-01T00:16:40.777Z,12.52
2023-01-01T00:19:09.196Z,12.33
2023-01-01T00:21:37.395Z,12.32
2023-01-01T00:24:07.743Z,12.45
2023-01-01T00:26:35.885Z,12.46
2023-01-01T00:29:05.026Z,12.25
2023-01-01T00:31:33.000Z,12.34
2023-01-01T00:34:01.784Z,12.24
2023-01-01T00:36:30.700Z,12.31
2023-01-01T00:38:59.056Z,12.36
2023-01-01T00:41:27.014Z,12.06
2023-01-01T00:43:55.283Z,12.33
2023-01-01T00:46:23.239Z,12.12
2023-01-01T00:48:51.534Z,12.01
2023-01-01T00:51:19.474Z,12.10
2023-01-01T00:53:47.636Z,12.21
2023-01-01T00:56:15.705Z,12.20
2023-01-01T00:58:45.347Z,12.08
2023-01-01T01:01:29.381Z,12.07
2023-01-01T01:03:57.804Z,11.87
2023-01-01T01:06:25.731Z,12.01
2023-01-01T01:08:54.077Z,11.95
2023-01-01T01:11:26.400Z,12.02
2023-01-01T01:13:56.879Z,12.12
2023-01-01T01:16:31.414Z,12.15
2023-01-01T01:19:02.774Z,12.28
2023-01-01T01:21:32.702Z,12.23
2023-01-01T01:24:03.734Z,12.15
2023-01-01T01:26:34.178Z,12.04
2023-01-01T01:29:03.475Z,12.03
2023-01-01T01:31:33.580Z,12.08
2023-01-01T01:34:02.402Z,12.02
2023-01-01T01:36:30.547Z,11.89
2023-01-01T01:38:58.988Z,11.85
2023-01-01T01:41:28.879Z,12.01
2023-01-01T01:44:04.485Z,11.84
2023-01-01T01:46:37.689Z,11.98
2023-01-01T01:49:15.623Z,12.07
2023-01-01T01:51:44.709Z,12.13
2023-01-01T01:54:18.933Z,12.27
2023-01-01T01:56:55.627Z,12.22
2023-01-01T01:59:27.785Z,12.06
2023-01-01T02:01:56.458Z,12.22
2023-01-01T02:04:26.209Z,12.02
2023-01-01T02:06:55.463Z,12.07
2023-01-01T02:09:23.812Z,12.10
2023-01-01T02:11:51.812Z,12.04
2023-01-01T02:14:20.184Z,11.94
2023-01-01T02:16:55.993Z,11.94
2023-01-01T02:19:59.695Z,11.97
2023-01-01T02:22:36.971Z,12.15
2023-01-01T02:25:10.826Z,12.29
2023-01-01T02:28:06.415Z,12.37
2023-01-01T02:30:37.122Z,12.20
2023-01-01T02:33:12.341Z,12.22
2023-01-01T02:35:49.754Z,12.11
2023-01-01T02:38:26.382Z,12.09
2023-01-01T02:41:20.020Z,12.29
2023-01-01T02:43:48.289Z,12.40
2023-01-01T02:48:52.247Z,12.42
2023-01-01T02:51:36.984Z,12.36
2023-01-01T02:54:35.602Z,12.21
2023-01-01T02:57:32.208Z,12.41
2023-01-01T03:00:28.512Z,12.47
2023-01-01T03:03:23.259Z,12.27
2023-01-01T03:06:15.692Z,12.23
2023-01-01T03:09:02.354Z,12.37
2023-01-01T03:11:56.397Z,12.35
2023-01-01T03:14:41.006Z,12.17
2023-01-01T03:17:29.006Z,12.19
2023-01-01T03:20:01.656Z,12.20
2023-01-01T03:25:13.330Z,12.19
2023-01-01T03:27:46.934Z,12.05
2023-01-01T03:30:22.643Z,12.03
2023-01-01T03:33:08.385Z,12.28
2023-01-01T03:35:55.042Z,12.16
2023-01-01T03:38:35.923Z,12.06
2023-01-01T03:41:13.913Z,12.22
2023-01-01T03:43:49.930Z,12.26
2023-01-01T03:46:24.320Z,12.28
2023-01-01T03:49:03.873Z,12.38
2023-01-01T03:51:42.445Z,12.33
2023-01-01T03:54:38.826Z,12.48
2023-01-01T03:57:40.294Z,12.57
2023-01-01T04:00:16.758Z,12.53
2023-01-01T04:03:02.778Z,12.39
2023-01-01T04:05:33.830Z,12.28
2023-01-01T04:08:04.257Z,12.41
2023-01-01T04:10:35.895Z,12.38
2023-01-01T04:13:06.923Z,12.46
2023-01-01T04:15:38.225Z,12.23
2023-01-01T04:18:06.592Z,12.20
2023-01-01T04:20:34.549Z,12.34
2023-01-01T04:23:03.143Z,12.32
2023-01-01T04:25:31.853Z,12.20
2023-01-01T04:28:02.714Z,12.29
2023-01-01T04:30:31.087Z,12.52
2023-01-01T04:32:59.305Z,12.33
2023-01-01T04:35:27.669Z,12.42
2023-01-01T04:37:55.982Z,12.47
2023-01-01T04:40:23.943Z,12.45
2023-01-01T04:42:54.753Z,12.45
2023-01-01T04:45:22.699Z,12.54
2023-01-01T04:47:51.651Z,12.62
2023-01-01T04:50:19.639Z,12.67
2023-01-01T04:52:51.457Z,12.51
2023-01-01T04:55:21.013Z,12.46
2023-01-01T04:57:49.260Z,12.34
2023-01-01T05:00:18.205Z,12.29
2023-01-01T05:02:46.554Z,12.36
2023-01-01T05:05:14.650Z,12.37
2023-01-01T05:07:43.566Z,12.44
2023-01-01T05:10:11.538Z,12.50
2023-01-01T05:12:39.837Z,12.60
2023-01-01T05:15:08.457Z,12.62
2023-01-01T05:17:36.828Z,12.42
2023-01-01T05:20:05.837Z,12.65
2023-01-01T05:22:34.116Z,12.58
2023-01-01T05:25:02.224Z,12.41
2023-01-01T05:27:31.715Z,12.47
2023-01-01T05:29:59.937Z,12.40
2023-01-01T05:32:28.630Z,12.47
2023-01-01T05:34:56.646Z,12.41
2023-01-01T05:37:24.936Z,12.43
2023-01-01T05:39:52.975Z,12.22
2023-01-01T05:42:22.587Z,12.30
2023-01-01T05:44:50.517Z,12.45
2023-01-01T05:47:19.035Z,12.48
2023-01-01T05:49:47.594Z,12.36
2023-01-01T05:52:16.967Z,12.41
2023-01-01T05:54:47.358Z,12.39
2023-01-01T05:57:17.385Z,12.63
2023-01-01T05:59:45.405Z,12.49
2023-01-01T06:02:13.858Z,12.55
2023-01-01T06:04:42.058Z,12.25
2023-01-01T06:07:10.342Z,12.02
2023-01-01T06:09:38.315Z,12.09
2023-01-01T06:12:08.415Z,11.98
2023-01-01T06:14:37.437Z,11.87
2023-01-01T06:17:06.998Z,11.89
2023-01-01T06:19:34.970Z,12.07
2023-01-01T06:22:04.396Z,12.02
2023-01-01T06:24:38.654Z,11.73
2023-01-01T06:27:07.992Z,11.75
2023-01-01T06:29:35.990Z,11.90
2023-01-01T06:32:04.608Z,11.81
2023-01-01T06:34:33.246Z,11.95
2023-01-01T06:37:06.724Z,12.27
2023-01-01T06:39:35.186Z,12.22
2023-01-01T06:42:04.815Z,12.25
2023-01-01T06:44:32.781Z,12.03
2023-01-01T06:47:02.266Z,12.04
2023-01-01T06:49:30.208Z,12.15
2023-01-01T06:51:58.548Z,11.98
2023-01-01T06:54:26.460Z,12.21
2023-01-01T06:56:56.433Z,12.15
2023-01-01T06:59:24.464Z,12.28
2023-01-01T07:01:52.874Z,12.16
2023-01-01T07:04:20.947Z,12.45
2023-01-01T07:06:49.247Z,12.41
2023-01-01T07:09:17.216Z,12.41
2023-01-01T07:11:46.212Z,12.29
2023-01-01T07:14:14.246Z,12.51
2023-01-01T07:16:44.030Z,12.49
2023-01-01T07:19:12.322Z,12.60
2023-01-01T07:21:55.365Z,12.46
2023-01-01T07:24:24.022Z,12.55
2023-01-01T07:26:52.548Z,12.68
2023-01-01T07:29:20.578Z,12.68
2023-01-01T07:31:49.409Z,12.59
2023-01-01T07:34:20.076Z,12.48
2023-01-01T07:36:49.274Z,12.69
2023-01-01T07:39:17.268Z,12.60
2023-01-01T07:41:46.113Z,12.61
2023-01-01T07:44:14.713Z,12.72
2023-01-01T07:46:43.125Z,12.80
2023-01-01T07:49:11.285Z,12.82
2023-01-01T07:51:39.679Z,12.80
2023-01-01T07:54:08.035Z,12.57
2023-01-01T07:56:36.834Z,12.57
2023-01-01T07:59:05.197Z,12.80
2023-01-01T08:01:38.348Z,12.62
2023-01-01T08:04:06.495Z,12.66
2023-01-01T08:06:34.846Z,12.63
2023-01-01T08:09:02.933Z,12.58
2023-01-01T08:11:31.359Z,12.47
2023-01-01T08:13:59.416Z,12.26
2023-01-01T08:16:27.863Z,12.11
2023-01-01T08:18:55.975Z,12.13
2023-01-01T08:21:24.299Z,12.36
2023-01-01T08:23:52.306Z,12.50
2023-01-01T08:26:29.881Z,12.50
2023-01-01T08:28:58.578Z,12.46
2023-01-01T08:31:26.907Z,12.53
2023-01-01T08:33:54.859Z,12.40
2023-01-01T08:36:23.466Z,12.42
2023-01-01T08:38:51.464Z,12.47
2023-01-01T08:41:19.761Z,12.17
2023-01-01T08:43:47.767Z,12.32
2023-01-01T08:46:16.578Z,12.65
2023-01-01T08:48:44.693Z,12.71
2023-01-01T08:51:13.333Z,12.77
2023-01-01T08:53:45.517Z,12.60
2023-01-01T08:56:19.271Z,12.43
2023-01-01T08:58:47.229Z,12.67
2023-01-01T09:01:16.222Z,12.64
2023-01-01T09:03:45.103Z,12.63
2023-01-01T09:06:14.095Z,12.77
2023-01-01T09:08:42.196Z,12.61
2023-01-01T09:11:25.314Z,12.80
2023-01-01T09:13:54.180Z,12.83
2023-01-01T09:16:23.457Z,12.96
2023-01-01T09:18:51.672Z,12.73
2023-01-01T09:21:20.046Z,12.64
2023-01-01T09:23:48.271Z,12.76
2023-01-01T09:26:16.629Z,12.79
2023-01-01T09:28:44.675Z,12.92
2023-01-01T09:31:13.078Z,12.98
2023-01-01T09:33:41.102Z,12.95
2023-01-01T09:36:27.847Z,13.22
2023-01-01T09:38:57.712Z,13.23
2023-01-01T09:41:48.755Z,13.20
2023-01-01T09:44:50.196Z,13.52
2023-01-01T09:47:23.005Z,13.21
2023-01-01T09:49:52.946Z,13.40
2023-01-01T09:52:22.989Z,13.42
2023-01-01T09:54:58.412Z,13.41
2023-01-01T09:57:31.306Z,13.46
2023-01-01T09:59:59.846Z,13.23
2023-01-01T10:02:41.403Z,13.43
2023-01-01T10:05:18.914Z,13.35
2023-01-01T10:08:05.220Z,13.81
2023-01-01T10:10:50.396Z,13.88
2023-01-01T10:13:42.734Z,13.62
2023-01-01T10:16:35.770Z,13.54
2023-01-01T10:19:26.166Z,13.46
2023-01-01T10:22:00.341Z,13.59
2023-01-01T10:24:59.705Z,13.53
2023-01-01T10:27:38.888Z,13.61
2023-01-01T10:30:16.650Z,13.51
2023-01-01T10:32:52.016Z,13.49
2023-01-01T10:35:42.127Z,13.45
2023-01-01T10:38:19.799Z,13.68
2023-01-01T10:40:48.196Z,13.58
2023-01-01T10:43:16.221Z,13.62
2023-01-01T10:45:53.688Z,13.69
2023-01-01T10:48:24.027Z,13.89
2023-01-01T10:50:53.880Z,13.69
2023-01-01T10:53:31.733Z,13.70
2023-01-01T10:56:16.365Z,13.43
2023-01-01T10:58:45.674Z,13.44
2023-01-01T11:01:26.228Z,13.76
2023-01-01T11:04:21.480Z,13.97
2023-01-01T11:06:49.932Z,13.88
2023-01-01T11:09:31.996Z,14.02
2023-01-01T11:12:15.258Z,13.98
2023-01-01T11:14:56.859Z,13.66
2023-01-01T11:17:37.045Z,13.74
2023-01-01T11:20:06.549Z,13.89
2023-01-01T11:22:44.317Z,14.28
2023-01-01T11:25:32.954Z,14.07
2023-01-01T11:28:16.291Z,14.26
2023-01-01T11:31:02.576Z,14.10
2023-01-01T11:33:35.104Z,13.95
2023-01-01T11:36:05.392Z,14.18
2023-01-01T11:38:34.976Z,13.67
2023-01-01T11:41:06.656Z,14.13
2023-01-01T11:43:41.685Z,14.24
2023-01-01T11:46:13.797Z,14.06
2023-01-01T11:48:44.151Z,13.93
2023-01-01T11:51:33.135Z,13.88
2023-01-01T11:54:25.069Z,13.84
2023-01-01T11:57:04.050Z,13.48
2023-01-01T11:59:46.255Z,13.46
2023-01-01T12:02:23.054Z,13.60
2023-01-01T12:05:01.481Z,13.48
2023-01-01T12:07:36.123Z,13.34
2023-01-01T12:10:14.886Z,13.47
2023-01-01T12:13:00.877Z,13.64
2023-01-01T12:15:47.216Z,13.57
2023-01-01T12:18:28.070Z,13.88
2023-01-01T12:21:11.739Z,13.78
2023-01-01T12:23:40.423Z,13.50
2023-01-01T12:26:08.662Z,13.92
2023-01-01T12:28:51.723Z,13.96
2023-01-01T12:31:30.220Z,13.49
2023-01-01T12:34:05.784Z,13.38
2023-01-01T12:36:57.436Z,13.74
2023-01-01T12:39:40.374Z,13.91
2023-01-01T12:42:15.804Z,13.77
2023-01-01T12:45:03.955Z,13.64
2023-01-01T12:47:36.360Z,13.47
2023-01-01T12:50:28.937Z,13.40
2023-01-01T12:53:10.554Z,13.52
2023-01-01T12:55:50.952Z,13.89
2023-01-01T12:58:34.824Z,13.44
2023-01-01T13:01:14.831Z,13.68
2023-01-01T13:03:55.845Z,13.72
2023-01-01T13:06:45.957Z,13.99
2023-01-01T13:09:26.452Z,13.82
2023-01-01T13:11:59.406Z,13.59
2023-01-01T13:14:28.165Z,13.53
2023-01-01T13:16:57.953Z,13.34
2023-01-01T13:19:41.093Z,13.39
2023-01-01T13:22:27.437Z,13.58
2023-01-01T13:25:11.176Z,13.83
2023-01-01T13:28:03.377Z,13.64
2023-01-01T13:30:38.434Z,13.66
2023-01-01T13:33:29.880Z,13.66
2023-01-01T13:36:13.272Z,13.69
2023-01-01T13:38:45.370Z,13.69
2023-01-01T13:41:25.858Z,13.76
2023-01-01T13:44:10.835Z,13.50
2023-01-01T13:46:42.291Z,13.37
2023-01-01T13:49:31.177Z,13.43
2023-01-01T13:52:24.516Z,13.21
2023-01-01T13:55:08.648Z,13.56
2023-01-01T13:57:48.302Z,13.51
2023-01-01T14:00:21.574Z,13.76
2023-01-01T14:03:01.496Z,13.43
2023-01-01T14:05:42.093Z,13.55
2023-01-01T14:08:35.663Z,13.68
2023-01-01T14:11:21.363Z,13.59
2023-01-01T14:13:51.067Z,13.28
2023-01-01T14:16:19.210Z,13.67
2023-01-01T14:18:53.907Z,13.41
2023-01-01T14:21:28.265Z,13.43
2023-01-01T14:23:59.723Z,13.45
2023-01-01T14:26:30.770Z,13.13
2023-01-01T14:29:02.549Z,13.26
2023-01-01T14:31:34.892Z,13.27
2023-01-01T14:34:24.826Z,13.20
2023-01-01T14:36:58.490Z,13.55
2023-01-01T14:39:36.672Z,13.28
2023-01-01T14:42:12.784Z,13.05
2023-01-01T14:44:43.994Z,13.08
2023-01-01T14:47:21.911Z,13.00
2023-01-01T14:49:51.993Z,13.24
2023-01-01T14:52:26.397Z,13.57
2023-01-01T14:54:57.652Z,13.60
2023-01-01T14:57:35.148Z,13.42
2023-01-01T15:00:25.123Z,13.30
2023-01-01T15:02:53.377Z,13.48
2023-01-01T15:05:35.159Z,13.38
2023-01-01T15:08:06.803Z,13.46
2023-01-01T15:10:39.075Z,13.38
2023-01-01T15:13:08.614Z,13.43
2023-01-01T15:15:54.636Z,13.45
2023-01-01T15:18:46.676Z,13.46
2023-01-01T15:21:22.236Z,13.45
2023-01-01T15:24:11.386Z,13.18
2023-01-01T15:26:49.292Z,13.34
2023-01-01T15:29:28.777Z,13.29
2023-01-01T15:32:25.365Z,12.92
2023-01-01T15:34:56.272Z,13.26
2023-01-01T15:37:46.078Z,13.24
2023-01-01T15:40:35.715Z,13.28
2023-01-01T15:43:04.096Z,13.07
2023-01-01T15:45:36.717Z,13.07
2023-01-01T15:48:06.082Z,13.18
2023-01-01T15:50:36.039Z,13.16
2023-01-01T15:53:15.135Z,13.02
2023-01-01T15:55:46.906Z,12.91
2023-01-01T15:58:30.489Z,13.07
2023-01-01T16:01:02.694Z,13.08
2023-01-01T16:03:33.600Z,13.22
2023-01-01T16:06:01.784Z,13.28
2023-01-01T16:08:30.107Z,13.29
2023-01-01T16:10:59.623Z,13.22
2023-01-01T16:13:27.948Z,13.04
2023-01-01T16:16:01.546Z,12.91
2023-01-01T16:18:33.604Z,12.82
2023-01-01T16:21:03.623Z,12.94
2023-01-01T16:23:32.200Z,12.92
2023-01-01T16:26:00.239Z,12.95
2023-01-01T16:28:29.185Z,13.06
2023-01-01T16:30:58.450Z,13.24
2023-01-01T16:33:26.896Z,13.20
2023-01-01T16:35:55.391Z,12.94
2023-01-01T16:38:23.727Z,12.88
2023-01-01T16:40:52.861Z,12.66
2023-01-01T16:43:21.504Z,12.94
2023-01-01T16:45:49.552Z,12.75
2023-01-01T16:48:17.886Z,13.03
2023-01-01T16:50:45.904Z,13.31
2023-01-01T16:53:15.388Z,13.16
2023-01-01T16:55:43.395Z,13.09
2023-01-01T16:58:47.886Z,13.09
2023-01-01T17:01:01.385Z,12.97
2023-01-01T17:03:32.781Z,12.95
2023-01-01T17:06:09.576Z,13.00
2023-01-01T17:08:39.520Z,13.22
2023-01-01T17:11:17.034Z,13.31
2023-01-01T17:13:47.896Z,13.06
2023-01-01T17:16:23.454Z,13.40
2023-01-01T17:21:44.889Z,13.39
2023-01-01T17:24:14.007Z,13.29
2023-01-01T17:26:42.183Z,12.98
2023-01-01T17:29:10.597Z,13.07
2023-01-01T17:31:38.634Z,12.70
2023-01-01T17:34:08.267Z,12.99
2023-01-01T17:36:39.702Z,12.97
2023-01-01T17:39:13.619Z,12.87
2023-01-01T17:41:43.139Z,13.18
2023-01-01T17:44:12.014Z,13.11
2023-01-01T17:46:40.539Z,12.95
2023-01-01T17:49:10.750Z,12.94
2023-01-01T17:51:39.622Z,12.84
2023-01-01T17:54:13.464Z,13.02
2023-01-01T17:56:41.680Z,12.82
2023-01-01T17:59:10.392Z,12.96
2023-01-01T18:01:38.579Z,12.85
2023-01-01T18:04:10.280Z,12.97
2023-01-01T18:06:43.057Z,12.74
2023-01-01T18:09:14.050Z,12.64
2023-01-01T18:11:42.646Z,13.02
2023-01-01T18:14:12.439Z,13.08
2023-01-01T18:16:44.125Z,13.01
2023-01-01T18:19:12.559Z,13.22
2023-01-01T18:21:41.006Z,12.89
2023-01-01T18:24:13.575Z,13.00
2023-01-01T18:26:42.038Z,12.81
2023-01-01T18:29:10.599Z,12.86
2023-01-01T18:31:38.678Z,12.77
2023-01-01T18:34:08.270Z,13.02
2023-01-01T18:36:37.085Z,12.87
2023-01-01T18:39:10.061Z,12.80
2023-01-01T18:42:01.490Z,12.87
2023-01-01T18:44:32.061Z,12.98
2023-01-01T18:47:00.044Z,13.13
2023-01-01T18:49:30.939Z,13.04
2023-01-01T18:52:08.599Z,12.92
2023-01-01T18:54:36.997Z,12.85
2023-01-01T18:57:07.980Z,12.89
2023-01-01T18:59:40.486Z,12.95
2023-01-01T19:02:21.454Z,12.96
2023-01-01T19:04:51.469Z,13.05
2023-01-01T19:07:19.553Z,13.18
2023-01-01T19:09:51.673Z,12.97
2023-01-01T19:12:24.877Z,13.03
2023-01-01T19:14:53.602Z,13.07
2023-01-01T19:17:23.881Z,12.93
2023-01-01T19:19:54.932Z,12.97
2023-01-01T19:22:31.515Z,13.01
2023-01-01T19:25:22.524Z,12.97
2023-01-01T19:27:53.613Z,12.90
2023-01-01T19:30:25.935Z,12.77
2023-01-01T19:32:54.671Z,12.81
2023-01-01T19:35:23.652Z,12.76
2023-01-01T19:37:52.232Z,12.86
2023-01-01T19:40:24.322Z,12.67
2023-01-01T19:42:52.889Z,12.84
2023-01-01T19:45:21.240Z,12.72
2023-01-01T19:47:49.117Z,12.98
2023-01-01T19:50:17.416Z,12.94
2023-01-01T19:52:45.347Z,12.49
2023-01-01T19:55:13.556Z,12.60
2023-01-01T19:57:41.486Z,12.71
2023-01-01T20:00:10.117Z,12.63
2023-01-01T20:02:46.586Z,12.59
2023-01-01T20:05:16.398Z,12.51
2023-01-01T20:07:44.378Z,12.62
2023-01-01T20:10:13.300Z,12.74
2023-01-01T20:12:41.291Z,12.58
2023-01-01T20:15:09.925Z,12.43
2023-01-01T20:17:37.877Z,12.53
2023-01-01T20:20:06.897Z,12.77
2023-01-01T20:22:34.947Z,12.64
2023-01-01T20:25:03.934Z,12.31
2023-01-01T20:27:32.023Z,12.27
2023-01-01T20:30:00.453Z,12.57
2023-01-01T20:32:29.324Z,12.70
2023-01-01T20:34:58.333Z,12.59
2023-01-01T20:37:38.907Z,12.66
2023-01-01T20:40:10.584Z,12.76
2023-01-01T20:42:38.713Z,12.65
2023-01-01T20:45:08.428Z,12.53
2023-01-01T20:47:37.969Z,12.73
2023-01-01T20:50:07.423Z,12.68
2023-01-01T20:52:35.421Z,12.68
2023-01-01T20:55:05.373Z,12.85
2023-01-01T20:57:33.613Z,12.72
2023-01-01T21:00:02.081Z,12.79
2023-01-01T21:02:30.245Z,12.94
2023-01-01T21:04:58.896Z,12.96
2023-01-01T21:07:26.778Z,12.94
2023-01-01T21:09:56.491Z,13.11
2023-01-01T21:12:24.560Z,13.03
2023-01-01T21:14:56.488Z,12.88
2023-01-01T21:17:24.815Z,12.80
2023-01-01T21:19:56.316Z,12.85
2023-01-01T21:22:24.445Z,12.92
2023-01-01T21:24:55.361Z,12.93
2023-01-01T21:27:34.393Z,12.75
2023-01-01T21:30:02.908Z,12.63
2023-01-01T21:32:39.417Z,12.72
2023-01-01T21:35:24.450Z,12.84
2023-01-01T21:37:55.312Z,12.81
2023-01-01T21:40:47.049Z,12.93
2023-01-01T21:43:36.014Z,13.01
2023-01-01T21:46:08.686Z,13.03
2023-01-01T21:48:47.447Z,12.95
2023-01-01T21:51:46.374Z,13.09
2023-01-01T21:54:21.800Z,13.04
2023-01-01T21:56:58.047Z,12.97
2023-01-01T21:59:33.422Z,12.92
2023-01-01T22:02:05.813Z,13.11
2023-01-01T22:04:42.593Z,13.16
2023-01-01T22:10:30.617Z,12.82
2023-01-01T22:13:01.031Z,12.77
2023-01-01T22:15:42.977Z,12.82
2023-01-01T22:18:26.666Z,12.79
2023-01-01T22:20:56.498Z,12.84
2023-01-01T22:23:38.672Z,12.57
2023-01-01T22:26:18.214Z,12.80
2023-01-01T22:28:49.696Z,12.96
2023-01-01T22:31:22.743Z,12.83
2023-01-01T22:33:54.163Z,12.75
2023-01-01T22:36:28.241Z,12.78
2023-01-01T22:39:02.851Z,12.81
2023-01-01T22:41:30.900Z,12.89
2023-01-01T22:44:02.982Z,12.87
2023-01-01T22:46:40.836Z,13.11
2023-01-01T22:49:19.391Z,13.15
2023-01-01T22:51:48.358Z,13.24
2023-01-01T22:54:17.922Z,13.29
2023-01-01T22:56:45.786Z,13.11
2023-01-01T22:59:14.116Z,13.09
2023-01-01T23:01:42.179Z,13.12
2023-01-01T23:04:10.487Z,13.05
2023-01-01T23:06:38.806Z,13.15
2023-01-01T23:09:08.713Z,12.83
2023-01-01T23:11:37.360Z,12.81
2023-01-01T23:14:25.106Z,12.89
2023-01-01T23:16:53.051Z,12.88
2023-01-01T23:19:22.298Z,12.80
2023-01-01T23:21:50.342Z,12.79
2023-01-01T23:24:21.275Z,12.47
2023-01-01T23:26:50.272Z,12.42
2023-01-01T23:29:21.102Z,12.78
2023-01-01T23:31:49.771Z,12.51
2023-01-01T23:34:19.314Z,12.66
2023-01-01T23:36:49.199Z,12.65
2023-01-01T23:39:18.379Z,12.91
2023-01-01T23:41:48.189Z,12.78
2023-01-01T23:44:16.419Z,12.86
2023-01-01T23:46:45.000Z,12.81
2023-01-01T23:49:14.742Z,12.92
2023-01-01T23:51:42.881Z,12.87
2023-01-01T23:54:12.080Z,12.92
2023-01-01T23:56:39.965Z,12.76
2023-01-01T23:59:09.330Z,12.47
